CheckWX is a tool to help pilots better visualize weather data.  It is not intended as a substitute for an official pre-flight weather briefing.

02:58:08 UTC

EGGD METAR
Bristol International Airport
Bristol, United Kingdom
Current

38 mins ago

EGGD 260220Z AUTO 26004KT 0050 R27/0275 FG VV/// 16/16 Q1019
Observed
Aug-26 @ 02:20 UTC
Wind
  • 260° at 4 KTS
Visibility
0 meters
Flight Rules
LIFR
Conditions
Fog
Cloud Levels
  • Vertical visibility
Temperature
16°C / 61°F
Dewpoint
16°C / 61°F
Humidity
100%
Altimeter
30.09" Hg
Pressure
1018.92 hPa
Previous

1 hour ago

EGGD 260150Z AUTO 24005KT 0050 R27/0300 FG VV/// 16/16 Q1019
Observed
Aug-26 @ 01:50 UTC
Wind
  • 240° at 5 KTS
Visibility
0 meters
Flight Rules
LIFR
Conditions
Fog
Cloud Levels
  • Vertical visibility
Temperature
16°C / 61°F
Dewpoint
16°C / 61°F
Humidity
100%
Altimeter
30.09" Hg
Pressure
1018.92 hPa
Previous

2 hours ago

EGGD 260120Z AUTO 25006KT 0100 R27/0325 FG VV/// 16/16 Q1019
Observed
Aug-26 @ 01:20 UTC
Wind
  • 250° at 6 KTS
Visibility
100 meters
Flight Rules
LIFR
Conditions
Fog
Cloud Levels
  • Vertical visibility
Temperature
16°C / 61°F
Dewpoint
16°C / 61°F
Humidity
100%
Altimeter
30.09" Hg
Pressure
1018.92 hPa